Nearby METAR Reports

 

EGOS - RAF Shawbury, Shropshire, UK
Distance from station: NE 9mi, 14km
Updated: 16/07/2018 08:50
Clear
Clear
 Wind from S
Wind: S 7 mph , 11 km/h
Temperature: 19°C
Dew Point: 14°C
Humidity: 73%
Barometer: 1013 hPa
Summary: Clear
Visibility: greater than 7 miles , 10 km
2018/07/16 07:50 EGOS 160750Z 18006KT CAVOK 19/14 Q1013 BLU TEMPO 6000 SHRA SCT022 WHT
KNUQ - Moffett Nas/Mtn, California, USA
Distance from station: N 9mi, 14km
Updated: 16/07/2018 08:56
Clear
Clear
 Wind from NNW
Wind: NNW 5 mph , 7 km/h
Temperature: 15°C
Dew Point: 14°C
Humidity: 94%
Barometer: 1015.2 hPa
Clouds: Clear
Visibility: 10 miles , 16 km
2018/07/16 07:56 KNUQ 160756Z AUTO 34004KT 10SM CLR 15/14 A2998 RMK AO2 SLP156 T01500139 402110144
 
KPAO - Palo Alto, California, USA
Distance from station: NNW 14mi, 23km
Updated: 16/07/2018 04:47
NOT Current
Clear
Clear
 Wind from NNW
Wind: NNW 12 mph , 19 km/h
Barometer: 1014.6 hPa
Clouds: Clear
Visibility: 10 miles , 16 km
2018/07/16 03:47 KPAO 160347Z 33010KT 10SM SKC A2996 RMK LAST
KRHV - San Jose/Reid, California, USA
Distance from station: ENE 12mi, 19km
Updated: 16/07/2018 05:48
NOT Current
Clear
Clear
 Wind from NNW
Wind: NNW 7 mph , 11 km/h
Temperature: 18°C
Dew Point: 14°C
Humidity: 78%
Barometer: 1014.2 hPa
Clouds: Clear
Visibility: 8 miles , 13 km
2018/07/16 04:48 KRHV 160448Z 33006KT 8SM SKC 18/14 A2995 RMK LAST
 
KOAK - Oakland, California, USA
Distance from station: NNW 31mi, 50km
Updated: 16/07/2018 08:53
Few Clouds
Few Clouds
 Wind from NW
Wind: NW 7 mph , 11 km/h
Temperature: 14°C
Dew Point: 13°C
Humidity: 94%
Barometer: 1015.6 hPa
Clouds: Few Clouds
Visibility: 10 miles , 16 km
Cloud details: Few Clouds 274 m
2018/07/16 07:53 KOAK 160753Z 31006KT 10SM FEW009 14/13 A2999 RMK AO2 SLP154 T01390128 402060133
KSQL - San Carlos Airpo, California, USA
Distance from station: NW 21mi, 34km
Updated: 16/07/2018 09:20
Few Clouds
Few Clouds
 Wind from NW
Wind: NW 3 mph , 6 km/h
Temperature: 15°C
Dew Point: 12°C
Humidity: 82%
Barometer: 1015.2 hPa
Clouds: Few Clouds
Visibility: 10 miles , 16 km
Cloud details: Few Clouds 396 m
2018/07/16 08:20 KSQL 160820Z AUTO 32003KT 10SM FEW013 15/12 A2998 RMK AO2
 
KSFO - San Francisco, California, USA
Distance from station: NW 30mi, 49km
Updated: 16/07/2018 08:56
Few Clouds
Few Clouds
 Wind from WNW
Wind: WNW 10 mph , 17 km/h
Temperature: 13°C
Dew Point: 12°C
Humidity: 94%
Barometer: 1015.2 hPa
Clouds: Few Clouds
Visibility: 10 miles , 16 km
Cloud details: Few Clouds 244 m
2018/07/16 07:56 KSFO 160756Z 29009KT 10SM FEW008 13/12 A2998 RMK AO2 SLP151 T01330117 402060128
KE16 - San Martin, California, USA
Distance from station: ESE 27mi, 43km
Updated: 16/07/2018 09:15
Mostly cloudy
Mostly cloudy
 Wind from SSE
Wind: SSE 3 mph , 6 km/h
Temperature: 15°C
Dew Point: 12°C
Humidity: 82%
Barometer: 1015.9 hPa
Clouds: Mostly cloudy
Visibility: 10 miles , 16 km
Cloud details: Mostly cloudy 1463 m
2018/07/16 08:15 KE16 160815Z AUTO 15003KT 10SM BKN048 15/12 A3000 RMK AO2
 
KWVI - Watsonville, California, USA
Distance from station: SSE 27mi, 44km
Updated: 16/07/2018 08:53
Overcast
Overcast
 Wind from E
Wind: E 3 mph , 6 km/h
Temperature: 14°C
Dew Point: 13°C
Humidity: 94%
Barometer: 1015.9 hPa
Clouds: Overcast
Visibility: 10 miles , 16 km
Cloud details: Overcast 213 m
2018/07/16 07:53 KWVI 160753Z AUTO 08003KT 10SM OVC007 14/13 A3000 RMK AO2 SLP159 T01390133 402060133
KHAF - Half Moon Bay, California, USA
Distance from station: WNW 31mi, 50km
Updated: 16/07/2018 09:20
Overcast
Overcast
 Wind from NE
Wind: NE 3 mph , 6 km/h
Temperature: 13°C
Dew Point: 12°C
Humidity: 94%
Barometer: 1015.9 hPa
Clouds: Overcast
Visibility: 7 miles , 11 km
Cloud details: Overcast 183 m
2018/07/16 08:20 KHAF 160820Z AUTO 05003KT 7SM OVC006 13/12 A3000 RMK AO2
 
KHWD - Hayward, California, USA
Distance from station: N 28mi, 44km
Updated: 16/07/2018 08:54
Clear
Clear
 Wind from NW
Wind: NW 6 mph , 9 km/h
Temperature: 15°C
Dew Point: 12°C
Humidity: 82%
Barometer: 1015.2 hPa
Clouds: Clear
Visibility: 10 miles , 16 km
2018/07/16 07:54 KHWD 160754Z 32005KT 10SM CLR 15/12 A2998 RMK AO2 SLP161 T01500117 402220150
KLVK - Livermore, California, USA
Distance from station: NNE 31mi, 51km
Updated: 16/07/2018 08:53
Clear
Clear
 Wind from W
Wind: W 6 mph , 9 km/h
Temperature: 16°C
Dew Point: 11°C
Humidity: 72%
Barometer: 1014.2 hPa
Clouds: Clear
Visibility: 10 miles , 16 km
2018/07/16 07:53 KLVK 160753Z AUTO 27005KT 10SM CLR 16/11 A2995 RMK AO2 SLP138 T01610111 403060128